createdAt,value
2022-10-28T01:10:57.556Z,16.70
2022-10-28T01:13:24.716Z,16.60
2022-10-28T01:15:56.921Z,16.60
2022-10-28T01:18:33.114Z,16.60
2022-10-28T01:21:19.893Z,16.70
2022-10-28T01:23:47.029Z,16.70
2022-10-28T01:26:16.946Z,16.60
2022-10-28T01:29:02.576Z,16.70
2022-10-28T01:31:36.226Z,16.70
2022-10-28T01:34:15.324Z,16.80
2022-10-28T01:36:48.869Z,16.90
2022-10-28T01:39:34.809Z,17.00
2022-10-28T01:42:15.584Z,16.80
2022-10-28T01:44:52.724Z,16.80
2022-10-28T01:47:22.820Z,16.80
2022-10-28T01:50:08.602Z,16.80
2022-10-28T01:52:37.819Z,16.80
2022-10-28T01:55:08.297Z,16.90
2022-10-28T01:57:37.091Z,16.90
2022-10-28T02:00:04.878Z,16.80
2022-10-28T02:02:39.754Z,16.80
2022-10-28T02:05:26.919Z,16.80
2022-10-28T02:07:57.725Z,16.70
2022-10-28T02:10:33.026Z,16.60
2022-10-28T02:13:02.703Z,16.50
2022-10-28T02:15:32.848Z,16.50
2022-10-28T02:18:15.282Z,16.40
2022-10-28T02:20:45.179Z,16.30
2022-10-28T02:23:12.305Z,16.30
2022-10-28T02:25:46.202Z,16.30
2022-10-28T02:28:16.740Z,16.30
2022-10-28T02:30:51.574Z,16.40
2022-10-28T02:33:21.296Z,16.30
2022-10-28T02:35:54.622Z,16.30
2022-10-28T02:38:43.350Z,16.30
2022-10-28T02:41:14.319Z,16.30
2022-10-28T02:43:42.610Z,16.20
2022-10-28T02:46:10.002Z,16.10
2022-10-28T02:48:40.098Z,16.10
2022-10-28T02:51:12.110Z,16.00
2022-10-28T02:53:50.511Z,16.10
2022-10-28T02:56:19.389Z,16.00
2022-10-28T02:58:47.385Z,16.00
2022-10-28T03:01:14.749Z,15.90
2022-10-28T03:03:41.993Z,15.90
2022-10-28T03:06:09.190Z,16.00
2022-10-28T03:08:36.362Z,15.90
2022-10-28T03:11:03.526Z,15.90
2022-10-28T03:13:30.762Z,15.90
2022-10-28T03:15:57.859Z,15.90
2022-10-28T03:18:25.044Z,16.00
2022-10-28T03:20:55.376Z,15.90
2022-10-28T03:23:25.249Z,15.80
2022-10-28T03:25:52.405Z,15.70
2022-10-28T03:28:19.632Z,15.70
2022-10-28T03:30:46.826Z,15.80
2022-10-28T03:33:14.005Z,15.80
2022-10-28T03:35:41.333Z,15.90
2022-10-28T03:38:08.510Z,15.90
2022-10-28T03:40:35.727Z,15.90
2022-10-28T03:43:02.983Z,16.00
2022-10-28T03:48:02.161Z,16.00
2022-10-28T03:50:29.267Z,15.90
2022-10-28T03:52:56.418Z,15.90
2022-10-28T03:55:27.578Z,15.90
2022-10-28T03:57:55.220Z,15.80
2022-10-28T04:00:22.631Z,15.90
2022-10-28T04:02:51.326Z,15.90
2022-10-28T04:05:18.965Z,15.90
2022-10-28T04:07:46.184Z,16.10
2022-10-28T04:10:13.617Z,16.00
2022-10-28T04:12:40.779Z,15.90
2022-10-28T04:15:08.019Z,15.90
2022-10-28T04:17:35.188Z,16.00
2022-10-28T04:20:02.337Z,16.10
2022-10-28T04:22:29.520Z,16.00
2022-10-28T04:24:56.691Z,16.00
2022-10-28T04:27:23.831Z,15.90
2022-10-28T04:29:50.958Z,15.90
2022-10-28T04:32:18.100Z,15.70
2022-10-28T04:34:45.270Z,15.70
2022-10-28T04:37:14.077Z,15.70
2022-10-28T04:39:43.111Z,15.60
2022-10-28T04:42:10.221Z,15.60
2022-10-28T04:44:37.367Z,15.70
2022-10-28T04:47:04.517Z,15.60
2022-10-28T04:49:34.342Z,15.60
2022-10-28T04:52:05.237Z,15.60
2022-10-28T04:54:32.445Z,15.50
2022-10-28T04:56:59.610Z,15.50
2022-10-28T04:59:26.751Z,15.50
2022-10-28T05:01:53.903Z,15.60
2022-10-28T05:04:21.111Z,15.50
2022-10-28T05:06:48.228Z,15.50
2022-10-28T05:09:15.422Z,15.50
2022-10-28T05:11:42.610Z,15.50
2022-10-28T05:14:09.812Z,15.60
2022-10-28T05:16:36.915Z,15.60
2022-10-28T05:19:04.098Z,15.70
2022-10-28T05:21:31.181Z,15.70
2022-10-28T05:23:58.358Z,15.70
2022-10-28T05:26:25.543Z,15.70
2022-10-28T05:28:52.678Z,15.70
2022-10-28T05:31:19.835Z,15.80
2022-10-28T05:33:47.014Z,15.70
2022-10-28T05:36:14.115Z,15.70
2022-10-28T05:38:45.359Z,15.60
2022-10-28T05:41:12.714Z,15.70
2022-10-28T05:43:39.903Z,15.60
2022-10-28T05:46:07.184Z,15.60
2022-10-28T05:48:34.487Z,15.60
2022-10-28T05:51:01.675Z,15.50
2022-10-28T05:53:28.854Z,15.60
2022-10-28T05:55:55.989Z,15.70
2022-10-28T05:58:23.086Z,15.70
2022-10-28T06:00:50.180Z,15.70
2022-10-28T06:03:17.303Z,15.70
2022-10-28T06:05:45.758Z,15.60
2022-10-28T06:08:13.615Z,15.50
2022-10-28T06:10:41.026Z,15.60
2022-10-28T06:13:07.538Z,15.50
2022-10-28T06:15:34.671Z,15.50
2022-10-28T06:18:01.882Z,15.50
2022-10-28T06:20:29.039Z,15.60
2022-10-28T06:22:56.388Z,15.80
2022-10-28T06:25:24.223Z,15.80
2022-10-28T06:27:58.215Z,15.90
2022-10-28T06:30:26.079Z,15.80
2022-10-28T06:32:56.459Z,15.90
2022-10-28T06:35:23.679Z,16.00
2022-10-28T06:37:55.104Z,16.00
2022-10-28T06:40:23.486Z,16.00
2022-10-28T06:42:57.641Z,16.10
2022-10-28T06:45:25.207Z,16.10
2022-10-28T06:48:01.718Z,16.20
2022-10-28T06:50:29.733Z,16.40
2022-10-28T06:52:57.344Z,16.60
2022-10-28T06:55:25.161Z,16.80
2022-10-28T06:57:52.798Z,16.90
2022-10-28T10:12:31.175Z,29.10
2022-10-28T10:14:59.970Z,29.00
2022-10-28T10:17:37.388Z,29.10
2022-10-28T10:20:04.842Z,28.60
2022-10-28T10:22:50.523Z,29.00
2022-10-28T10:25:17.926Z,28.90
2022-10-28T10:28:01.708Z,29.00
2022-10-28T10:30:33.565Z,28.10
2022-10-28T10:33:02.939Z,27.20
2022-10-28T10:35:33.473Z,26.70
2022-10-28T10:38:04.483Z,26.60
2022-10-28T10:40:35.390Z,26.00
2022-10-28T10:43:17.762Z,26.40
2022-10-28T10:46:04.870Z,27.00
2022-10-28T10:48:36.256Z,27.10
2022-10-28T10:51:26.760Z,27.10
2022-10-28T10:53:57.898Z,27.10
2022-10-28T10:56:28.325Z,27.10
2022-10-28T10:59:01.226Z,26.90
2022-10-28T11:01:39.823Z,26.70
2022-10-28T11:04:15.069Z,27.40
2022-10-28T11:06:44.644Z,27.40
2022-10-28T11:09:36.315Z,27.20
2022-10-28T11:12:26.462Z,27.40
2022-10-28T11:14:57.270Z,27.40
2022-10-28T11:17:30.282Z,26.90
2022-10-28T11:20:00.115Z,26.90
2022-10-28T11:23:05.638Z,27.20
2022-10-28T11:25:38.468Z,27.20
2022-10-28T11:28:23.580Z,27.40
2022-10-28T11:30:56.835Z,27.30
2022-10-28T11:33:54.676Z,27.60
2022-10-28T11:36:39.128Z,27.70
2022-10-28T11:39:12.425Z,27.20
2022-10-28T11:41:58.365Z,27.10
2022-10-28T11:44:54.831Z,27.40
2022-10-28T11:47:41.112Z,27.70
2022-10-28T11:50:13.297Z,27.60
2022-10-28T11:53:01.675Z,27.90
2022-10-28T11:55:47.661Z,27.90
2022-10-28T11:58:26.922Z,27.90
2022-10-28T12:00:54.273Z,27.60
2022-10-28T12:04:12.578Z,27.60
2022-10-28T12:07:26.735Z,28.00
2022-10-28T12:10:21.735Z,27.90
2022-10-28T12:12:51.446Z,27.70
2022-10-28T12:15:41.954Z,27.80
2022-10-28T12:18:50.845Z,27.50
2022-10-28T12:21:39.663Z,27.20
2022-10-28T12:24:16.241Z,27.10
2022-10-28T12:26:47.363Z,27.10
2022-10-28T12:29:23.941Z,27.10
2022-10-28T12:32:03.165Z,27.00
2022-10-28T12:34:38.027Z,26.70
2022-10-28T12:37:13.769Z,26.70
2022-10-28T12:40:20.685Z,26.50
2022-10-28T12:43:01.874Z,26.50
2022-10-28T12:45:32.151Z,26.80
2022-10-28T12:48:13.731Z,26.90
2022-10-28T12:50:52.936Z,26.90
2022-10-28T12:53:35.661Z,26.90
2022-10-28T12:56:06.674Z,27.10
2022-10-28T12:58:44.835Z,26.60
2022-10-28T13:01:15.877Z,26.40
2022-10-28T13:03:43.504Z,26.40
2022-10-28T13:06:10.788Z,26.50
2022-10-28T13:08:47.362Z,26.50
2022-10-28T13:11:50.571Z,26.30
2022-10-28T13:14:56.302Z,26.40
2022-10-28T13:17:57.566Z,26.60
2022-10-28T13:20:57.541Z,26.70
2022-10-28T13:23:45.847Z,26.40
2022-10-28T13:26:31.304Z,26.60
2022-10-28T13:29:01.909Z,26.80
2022-10-28T13:31:55.608Z,26.60
2022-10-28T13:34:35.966Z,26.30
2022-10-28T13:37:06.086Z,26.20
2022-10-28T13:39:36.392Z,26.20
2022-10-28T13:42:46.177Z,26.10
2022-10-28T13:45:56.642Z,25.90
2022-10-28T13:48:30.183Z,25.60
2022-10-28T13:51:09.335Z,25.40
2022-10-28T13:53:45.530Z,25.40
2022-10-28T13:56:21.812Z,25.30
2022-10-28T13:59:02.753Z,25.20
2022-10-28T14:02:07.864Z,25.00
2022-10-28T14:04:42.825Z,25.00
2022-10-28T14:07:22.773Z,25.00
2022-10-28T14:09:53.167Z,24.90
2022-10-28T14:12:32.054Z,24.80
2022-10-28T14:15:18.934Z,24.80
2022-10-28T14:18:05.178Z,24.60
2022-10-28T14:20:48.462Z,24.60
2022-10-28T14:23:21.855Z,24.70
2022-10-28T14:25:54.562Z,24.60
2022-10-28T14:28:27.940Z,24.60
2022-10-28T14:31:10.532Z,24.50
2022-10-28T14:33:38.168Z,24.50
2022-10-28T14:36:17.705Z,24.40
2022-10-28T14:39:03.554Z,24.30
2022-10-28T14:41:55.550Z,24.20
2022-10-28T14:44:43.892Z,24.20
2022-10-28T14:47:16.790Z,24.20
2022-10-28T14:50:09.477Z,24.20
2022-10-28T14:52:37.696Z,24.30
2022-10-28T14:55:08.373Z,24.10
2022-10-28T14:57:35.772Z,24.10
2022-10-28T15:00:07.966Z,24.00
2022-10-28T15:02:38.284Z,24.20
2022-10-28T15:05:26.187Z,24.00
2022-10-28T15:07:53.976Z,24.00
2022-10-28T15:10:31.192Z,24.00
2022-10-28T15:13:00.363Z,23.90
2022-10-28T15:15:30.627Z,23.80
2022-10-28T15:17:59.264Z,23.70
2022-10-28T15:20:29.729Z,23.60
2022-10-28T15:23:18.943Z,23.70
2022-10-28T15:25:46.600Z,23.70
2022-10-28T15:28:14.484Z,23.60
2022-10-28T15:30:46.426Z,23.60
2022-10-28T15:33:38.132Z,23.50
2022-10-28T15:36:26.366Z,23.50
2022-10-28T15:39:16.990Z,23.40
2022-10-28T15:41:46.033Z,23.40
2022-10-28T15:44:43.090Z,23.40
2022-10-28T15:47:32.878Z,23.30
2022-10-28T15:50:27.130Z,23.20
2022-10-28T15:53:09.832Z,23.10
2022-10-28T15:58:40.017Z,23.00
2022-10-28T16:01:35.260Z,22.90
2022-10-28T16:04:02.829Z,22.80
2022-10-28T16:06:36.585Z,22.80
2022-10-28T16:09:06.956Z,22.70
2022-10-28T16:11:39.342Z,22.70
2022-10-28T16:14:35.680Z,22.60
2022-10-28T16:17:23.791Z,22.60
2022-10-28T16:19:58.517Z,22.60
2022-10-28T16:22:28.328Z,22.50
2022-10-28T16:24:55.766Z,22.40
2022-10-28T16:27:32.970Z,22.40
2022-10-28T16:30:00.392Z,22.30
2022-10-28T16:32:33.924Z,22.20
2022-10-28T16:35:03.980Z,22.20
2022-10-28T16:37:34.110Z,22.20
2022-10-28T16:40:01.461Z,22.10
2022-10-28T16:42:28.812Z,22.20
2022-10-28T16:44:56.123Z,22.60
2022-10-28T16:47:29.178Z,22.90
2022-10-28T16:49:57.476Z,23.10
2022-10-28T16:52:30.507Z,23.10
2022-10-28T16:54:58.773Z,23.20
2022-10-28T16:57:26.883Z,23.20
2022-10-28T16:59:54.623Z,23.20
2022-10-28T17:02:29.747Z,23.20
2022-10-28T17:04:58.020Z,23.20
2022-10-28T17:07:26.199Z,23.20
2022-10-28T17:09:53.768Z,23.10
2022-10-28T17:12:23.604Z,23.10
2022-10-28T17:14:51.212Z,23.10
2022-10-28T17:17:19.221Z,23.10
2022-10-28T17:19:46.857Z,23.10
2022-10-28T17:22:14.351Z,23.10
2022-10-28T17:24:41.835Z,23.10
2022-10-28T17:27:09.213Z,23.10
2022-10-28T17:29:36.715Z,23.10
2022-10-28T17:32:04.737Z,23.10
2022-10-28T17:34:32.172Z,23.10
2022-10-28T17:36:59.492Z,23.00
2022-10-28T17:39:27.027Z,23.10
2022-10-28T17:41:54.379Z,23.00
2022-10-28T17:44:21.925Z,23.00
2022-10-28T17:46:49.430Z,23.10
2022-10-28T17:49:17.433Z,23.00
2022-10-28T17:51:44.877Z,23.00
2022-10-28T17:54:12.291Z,23.00
2022-10-28T17:56:42.136Z,23.00
2022-10-28T17:59:09.873Z,23.00
2022-10-28T18:01:37.334Z,23.00
2022-10-28T18:04:06.143Z,22.90
2022-10-28T18:06:33.905Z,22.90
2022-10-28T18:09:01.287Z,22.90
2022-10-28T18:11:31.326Z,22.90
2022-10-28T18:13:58.722Z,22.90
2022-10-28T18:16:28.226Z,22.90
2022-10-28T18:18:56.422Z,22.90
2022-10-28T18:21:27.304Z,22.90
2022-10-28T18:24:03.372Z,22.80
2022-10-28T18:26:32.591Z,22.80
2022-10-28T18:29:03.790Z,22.80
2022-10-28T18:31:34.895Z,22.80
2022-10-28T18:34:03.343Z,22.70
2022-10-28T18:36:34.841Z,22.80
2022-10-28T18:39:05.461Z,22.70
2022-10-28T18:41:34.714Z,22.70
2022-10-28T18:44:04.442Z,22.70
2022-10-28T18:46:35.301Z,22.70
2022-10-28T18:49:02.955Z,22.70
2022-10-28T18:51:30.438Z,22.70
2022-10-28T18:53:58.027Z,22.70
2022-10-28T18:56:29.164Z,22.60
2022-10-28T18:58:58.106Z,22.70
2022-10-28T19:01:28.190Z,22.60
2022-10-28T19:04:00.961Z,22.60
2022-10-28T19:06:32.637Z,22.60
2022-10-28T19:09:02.688Z,22.60
2022-10-28T19:11:31.617Z,22.60
2022-10-28T19:14:00.657Z,22.60
2022-10-28T19:16:29.841Z,22.50
2022-10-28T19:18:58.701Z,22.50
2022-10-28T19:21:27.465Z,22.50
2022-10-28T19:23:55.547Z,22.50
2022-10-28T19:26:23.604Z,22.50
2022-10-28T19:28:52.058Z,22.50
2022-10-28T19:31:22.370Z,22.50
2022-10-28T19:33:51.359Z,22.40
2022-10-28T19:36:23.779Z,22.40
2022-10-28T19:38:55.343Z,22.40
2022-10-28T19:41:25.108Z,22.40
2022-10-28T19:43:58.560Z,22.40
2022-10-28T19:46:28.299Z,22.40
2022-10-28T19:48:58.892Z,22.40
2022-10-28T19:51:28.938Z,22.40
2022-10-28T19:53:59.200Z,22.40
2022-10-28T19:56:27.903Z,22.30
2022-10-28T19:58:57.855Z,22.30
2022-10-28T20:01:27.303Z,22.30
2022-10-28T20:03:55.959Z,22.30
2022-10-28T20:06:30.368Z,22.30
2022-10-28T20:08:57.820Z,22.30
2022-10-28T20:11:27.591Z,22.30
2022-10-28T20:14:03.255Z,22.30
2022-10-28T20:16:32.254Z,22.30
2022-10-28T20:18:59.799Z,22.30
2022-10-28T20:21:29.315Z,22.20
2022-10-28T20:23:57.794Z,22.20
2022-10-28T20:26:28.106Z,22.20
2022-10-28T20:28:56.085Z,22.20
2022-10-28T20:31:26.299Z,22.20
2022-10-28T20:33:59.670Z,22.20
2022-10-28T20:36:30.153Z,22.20
2022-10-28T20:39:16.035Z,22.20
2022-10-28T20:41:45.594Z,22.10
2022-10-28T20:44:13.020Z,22.10
2022-10-28T20:46:40.713Z,22.10
2022-10-28T20:49:13.104Z,22.10
2022-10-28T20:51:41.175Z,22.10
2022-10-28T20:54:08.656Z,22.10
2022-10-28T20:56:38.244Z,22.10
2022-10-28T20:59:05.948Z,22.10
2022-10-28T21:01:36.267Z,22.10
2022-10-28T21:04:06.577Z,22.10
2022-10-28T21:06:34.767Z,22.10
2022-10-28T21:09:02.213Z,22.10
2022-10-28T21:11:29.543Z,22.00
2022-10-28T21:13:59.376Z,22.10
2022-10-28T21:16:28.173Z,22.00
2022-10-28T21:18:56.405Z,22.00
2022-10-28T21:21:24.802Z,22.00
2022-10-28T21:23:52.545Z,22.00
2022-10-28T21:26:20.099Z,22.00
2022-10-28T21:28:52.139Z,22.00
2022-10-28T21:31:21.271Z,21.90
2022-10-28T21:36:21.451Z,21.90
2022-10-28T21:38:52.288Z,21.90
2022-10-28T21:41:20.904Z,21.90
2022-10-28T21:43:52.753Z,21.90
2022-10-28T21:46:21.525Z,21.90
2022-10-28T21:48:49.012Z,21.90
2022-10-28T21:51:17.327Z,21.90
2022-10-28T21:53:45.523Z,21.80
2022-10-28T21:56:19.245Z,21.80
2022-10-28T21:58:48.797Z,21.80
2022-10-28T22:01:24.120Z,21.80
2022-10-28T22:03:54.603Z,21.80
2022-10-28T22:06:22.413Z,21.80
2022-10-28T22:08:52.133Z,21.80
2022-10-28T22:11:21.616Z,21.80
2022-10-28T22:13:59.204Z,21.80
2022-10-28T22:16:28.145Z,21.70
2022-10-28T22:18:57.191Z,21.70
2022-10-28T22:21:30.184Z,21.70
2022-10-28T22:23:57.788Z,21.70
2022-10-28T22:26:28.483Z,21.70
2022-10-28T22:28:56.444Z,21.70
2022-10-28T22:31:26.922Z,21.70
2022-10-28T22:33:54.671Z,21.70
2022-10-28T22:36:23.511Z,21.70
2022-10-28T22:38:51.662Z,21.70
2022-10-28T22:41:24.399Z,21.70
2022-10-28T22:43:54.243Z,21.60
2022-10-28T22:46:23.297Z,21.70
2022-10-28T22:48:50.605Z,21.60
2022-10-28T22:51:18.977Z,21.60
2022-10-28T22:53:46.728Z,21.60
2022-10-28T22:56:20.361Z,21.60
2022-10-28T22:58:51.988Z,21.60
2022-10-28T23:01:20.375Z,21.60
2022-10-28T23:03:49.941Z,21.60
2022-10-28T23:06:19.826Z,21.60
2022-10-28T23:08:47.536Z,21.60
2022-10-28T23:11:16.876Z,21.60
2022-10-28T23:13:45.151Z,21.50
2022-10-28T23:16:15.013Z,21.50
2022-10-28T23:18:43.116Z,21.50
2022-10-28T23:21:32.713Z,21.50
2022-10-28T23:24:00.983Z,21.50
2022-10-28T23:26:29.443Z,21.50
2022-10-28T23:28:58.735Z,21.50
2022-10-28T23:31:27.405Z,21.50
2022-10-28T23:33:55.523Z,21.40
2022-10-28T23:36:23.306Z,21.50
2022-10-28T23:38:50.906Z,21.50
2022-10-28T23:41:19.387Z,21.40
2022-10-28T23:43:47.405Z,21.50
2022-10-28T23:46:14.869Z,21.50
2022-10-28T23:48:42.247Z,21.40
2022-10-28T23:51:09.627Z,21.40
2022-10-28T23:53:37.217Z,21.40
2022-10-28T23:56:05.132Z,21.40
2022-10-28T23:58:32.461Z,21.40
